Terminal Aerodrome Forecast
Issued by NWS Green Bay, WI

Home | Current Version | Previous Version | Graphics & Text | Print | Product List | Glossary On
Versions: 1 2 3 4 5 6 7 8 9 10 11 12 13 14 15 16 17 18
000
FTUS43 KGRB 161731
TAFGRB
TAF
KGRB 161731Z 1618/1718 18011KT P6SM SCT250
     FM162300 17008KT P6SM SCT200
     FM170600 19007KT P6SM BKN150
     FM171100 23006KT P6SM -SHRA BKN070
     FM171600 27009G14KT P6SM BKN150=

USA.gov is the U.S. government's official web portal to all federal, state and local government web resources and services.